createdAt,value
2022-09-12T00:01:02.997Z,56.40
2022-09-12T00:03:30.233Z,56.80
2022-09-12T00:05:57.401Z,57.00
2022-09-12T00:08:24.605Z,57.50
2022-09-12T00:10:52.000Z,57.40
2022-09-12T00:13:19.176Z,57.10
2022-09-12T00:15:46.402Z,57.20
2022-09-12T00:18:17.035Z,57.20
2022-09-12T00:20:46.559Z,57.10
2022-09-12T00:23:15.385Z,57.10
2022-09-12T00:25:44.729Z,57.10
2022-09-12T00:28:13.366Z,57.20
2022-09-12T00:30:46.385Z,57.10
2022-09-12T00:33:14.083Z,57.10
2022-09-12T00:35:43.261Z,57.10
2022-09-12T00:38:11.199Z,57.10
2022-09-12T00:40:38.967Z,57.40
2022-09-12T00:43:10.379Z,56.90
2022-09-12T00:45:37.666Z,56.60
2022-09-12T00:48:05.680Z,56.50
2022-09-12T00:50:33.631Z,56.00
2022-09-12T00:53:06.639Z,56.10
2022-09-12T00:55:42.083Z,56.20
2022-09-12T00:58:26.847Z,56.20
2022-09-12T01:00:54.160Z,56.10
2022-09-12T01:03:23.680Z,56.10
2022-09-12T01:06:12.050Z,55.90
2022-09-12T01:08:41.246Z,56.20
2022-09-12T01:11:11.303Z,56.40
2022-09-12T01:13:38.626Z,56.80
2022-09-12T01:16:07.151Z,57.10
2022-09-12T01:18:53.431Z,57.20
2022-09-12T01:21:20.699Z,57.60
2022-09-12T01:24:20.883Z,57.50
2022-09-12T01:27:23.091Z,57.60
2022-09-12T01:30:01.943Z,57.70
2022-09-12T01:33:04.312Z,57.60
2022-09-12T01:35:46.104Z,57.90
2022-09-12T01:38:50.764Z,58.10
2022-09-12T01:42:06.016Z,58.40
2022-09-12T01:45:02.967Z,58.60
2022-09-12T01:47:54.451Z,58.70
2022-09-12T01:50:26.182Z,58.80
2022-09-12T01:53:09.051Z,58.80
2022-09-12T01:55:56.651Z,58.80
2022-09-12T01:58:49.895Z,59.00
2022-09-12T02:01:31.707Z,59.30
2022-09-12T02:04:14.222Z,59.70
2022-09-12T02:06:51.385Z,59.90
2022-09-12T02:09:28.177Z,60.10
2022-09-12T02:12:00.479Z,60.30
2022-09-12T02:14:37.608Z,60.40
2022-09-12T02:17:13.558Z,60.50
2022-09-12T02:19:47.561Z,60.70
2022-09-12T02:22:19.827Z,60.90
2022-09-12T02:24:50.930Z,60.80
2022-09-12T02:27:38.462Z,60.80
2022-09-12T02:30:07.227Z,60.80
2022-09-12T02:33:00.898Z,60.90
2022-09-12T02:35:48.786Z,60.90
2022-09-12T02:38:37.541Z,61.10
2022-09-12T02:41:05.016Z,61.10
2022-09-12T02:43:32.256Z,61.40
2022-09-12T02:46:00.725Z,61.30
2022-09-12T02:48:34.623Z,61.50
2022-09-12T02:51:02.622Z,61.40
2022-09-12T02:53:30.074Z,61.20
2022-09-12T02:55:57.965Z,61.10
2022-09-12T02:58:30.643Z,61.30
2022-09-12T03:01:09.651Z,61.30
2022-09-12T03:03:57.139Z,61.30
2022-09-12T03:06:44.416Z,61.20
2022-09-12T03:09:37.773Z,61.30
2022-09-12T03:12:33.030Z,61.30
2022-09-12T03:15:31.557Z,61.00
2022-09-12T03:18:25.898Z,60.70
2022-09-12T03:21:08.362Z,60.40
2022-09-12T03:24:01.270Z,60.70
2022-09-12T03:26:38.308Z,60.80
2022-09-12T03:29:07.279Z,61.30
2022-09-12T03:31:34.546Z,61.50
2022-09-12T03:34:02.135Z,61.70
2022-09-12T03:36:31.332Z,61.90
2022-09-12T03:38:58.637Z,61.90
2022-09-12T03:41:25.871Z,62.10
2022-09-12T03:43:53.142Z,62.40
2022-09-12T03:46:20.347Z,62.50
2022-09-12T03:48:47.529Z,62.30
2022-09-12T03:51:14.796Z,61.90
2022-09-12T03:53:42.111Z,62.00
2022-09-12T03:56:11.128Z,62.10
2022-09-12T03:58:38.482Z,61.90
2022-09-12T04:01:13.490Z,61.60
2022-09-12T04:03:44.800Z,61.00
2022-09-12T04:06:14.910Z,60.80
2022-09-12T04:08:43.803Z,61.50
2022-09-12T04:11:13.318Z,61.90
2022-09-12T04:13:42.445Z,61.00
2022-09-12T04:16:10.500Z,59.90
2022-09-12T04:18:38.587Z,59.80
2022-09-12T04:21:12.901Z,59.60
2022-09-12T04:23:40.274Z,59.50
2022-09-12T04:26:07.670Z,59.20
2022-09-12T04:28:36.747Z,59.70
2022-09-12T04:31:09.099Z,59.60
2022-09-12T04:33:37.053Z,59.90
2022-09-12T04:36:14.516Z,60.30
2022-09-12T04:38:41.727Z,60.60
2022-09-12T04:41:18.094Z,60.50
2022-09-12T04:43:46.642Z,60.40
2022-09-12T04:46:16.774Z,60.50
2022-09-12T04:48:45.483Z,61.00
2022-09-12T04:51:17.321Z,60.80
2022-09-12T04:53:49.220Z,60.70
2022-09-12T04:56:16.827Z,61.10
2022-09-12T04:58:44.139Z,61.00
2022-09-12T05:01:14.380Z,60.70
2022-09-12T05:03:45.559Z,60.80
2022-09-12T05:06:15.987Z,61.30
2022-09-12T05:08:43.936Z,60.90
2022-09-12T05:11:19.550Z,60.50
2022-09-12T05:13:49.673Z,60.40
2022-09-12T05:16:18.211Z,60.50
2022-09-12T05:18:47.414Z,60.30
2022-09-12T05:21:18.331Z,60.10
2022-09-12T05:23:45.939Z,60.50
2022-09-12T05:26:19.218Z,60.30
2022-09-12T05:28:47.548Z,60.30
2022-09-12T05:31:26.232Z,59.90
2022-09-12T05:33:55.337Z,59.60
2022-09-12T05:36:25.530Z,59.70
2022-09-12T05:38:53.123Z,60.00
2022-09-12T05:41:24.971Z,59.90
2022-09-12T05:43:54.724Z,60.10
2022-09-12T05:46:24.530Z,60.20
2022-09-12T05:48:56.114Z,60.00
2022-09-12T05:51:25.687Z,59.70
2022-09-12T05:53:55.988Z,59.70
2022-09-12T05:56:26.422Z,59.60
2022-09-12T05:58:56.155Z,59.80
2022-09-12T06:01:23.549Z,59.80
2022-09-12T06:03:52.753Z,59.40
2022-09-12T06:06:22.218Z,59.60
2022-09-12T06:08:51.719Z,59.50
2022-09-12T06:11:22.190Z,59.40
2022-09-12T06:13:51.154Z,59.40
2022-09-12T06:16:22.942Z,59.10
2022-09-12T06:18:55.173Z,58.80
2022-09-12T06:21:23.428Z,57.60
2022-09-12T06:23:50.962Z,57.60
2022-09-12T06:26:21.769Z,56.80
2022-09-12T06:28:49.844Z,56.20
2022-09-12T06:31:25.904Z,55.00
2022-09-12T06:33:55.198Z,55.20
2022-09-12T06:36:25.916Z,54.40
2022-09-12T06:38:58.941Z,53.30
2022-09-12T06:41:27.046Z,53.50
2022-09-12T06:43:54.568Z,52.90
2022-09-12T06:46:22.420Z,52.60
2022-09-12T06:48:50.670Z,52.20
2022-09-12T06:51:20.284Z,51.70
2022-09-12T06:53:48.797Z,51.40
2022-09-12T06:56:21.801Z,51.30
2022-09-12T06:58:50.789Z,51.30
2022-09-12T07:01:29.559Z,51.20
2022-09-12T07:04:03.123Z,51.10
2022-09-12T07:06:38.979Z,50.80
2022-09-12T07:09:08.406Z,50.60
2022-09-12T07:11:37.357Z,51.30
2022-09-12T07:14:06.358Z,50.80
2022-09-12T07:16:36.935Z,50.80
2022-09-12T07:19:06.002Z,50.20
2022-09-12T07:21:33.214Z,49.50
2022-09-12T07:24:02.946Z,49.90
2022-09-12T07:26:30.582Z,50.40
2022-09-12T07:29:18.567Z,50.40
2022-09-12T07:31:46.313Z,50.40
2022-09-12T07:34:14.136Z,50.10
2022-09-12T07:36:41.264Z,49.80
2022-09-12T07:39:10.963Z,49.50
2022-09-12T07:41:38.375Z,50.00
2022-09-12T07:44:07.224Z,49.70
2022-09-12T07:46:35.499Z,50.10
2022-09-12T07:49:03.072Z,50.40
2022-09-12T07:51:31.742Z,50.70
2022-09-12T07:53:59.580Z,50.60
2022-09-12T07:56:31.090Z,50.60
2022-09-12T07:59:00.081Z,50.80
2022-09-12T08:01:27.894Z,50.90
2022-09-12T08:03:57.477Z,50.80
2022-09-12T08:06:30.446Z,50.50
2022-09-12T08:08:59.604Z,50.80
2022-09-12T08:11:28.871Z,50.90
2022-09-12T08:13:58.052Z,51.10
2022-09-12T08:16:28.103Z,51.30
2022-09-12T08:19:00.294Z,50.60
2022-09-12T08:21:30.467Z,51.00
2022-09-12T08:24:03.948Z,51.00
2022-09-12T08:26:32.919Z,50.90
2022-09-12T08:29:00.530Z,51.00
2022-09-12T08:31:28.037Z,50.40
2022-09-12T08:33:58.886Z,49.50
2022-09-12T08:36:28.519Z,50.20
2022-09-12T08:39:01.290Z,50.30
2022-09-12T08:41:45.401Z,49.90
2022-09-12T08:44:35.014Z,50.40
2022-09-12T08:47:11.123Z,50.90
2022-09-12T08:50:06.170Z,50.30
2022-09-12T08:52:39.498Z,50.20
2022-09-12T08:55:13.578Z,50.40
2022-09-12T08:57:42.168Z,50.50
2022-09-12T09:00:14.211Z,50.30
2022-09-12T09:02:47.202Z,49.80
2022-09-12T09:05:36.169Z,50.00
2022-09-12T09:08:11.352Z,51.20
2022-09-12T09:10:53.771Z,51.90
2022-09-12T09:14:04.878Z,51.70
2022-09-12T09:16:38.952Z,52.40
2022-09-12T09:19:15.739Z,52.40
2022-09-12T09:22:05.402Z,52.00
2022-09-12T09:24:43.703Z,52.20
2022-09-12T09:27:41.492Z,52.60
2022-09-12T09:30:16.087Z,52.60
2022-09-12T09:32:47.872Z,52.00
2022-09-12T09:35:26.737Z,51.70
2022-09-12T09:38:21.534Z,51.90
2022-09-12T09:40:57.104Z,51.90
2022-09-12T09:43:29.262Z,51.70
2022-09-12T09:46:00.549Z,52.50
2022-09-12T09:48:27.671Z,52.10
2022-09-12T09:50:57.698Z,51.70
2022-09-12T09:53:43.783Z,51.30
2022-09-12T09:56:29.165Z,51.00
2022-09-12T09:58:56.647Z,51.40
2022-09-12T10:01:25.019Z,52.20
2022-09-12T10:03:54.891Z,52.40
2022-09-12T10:06:34.797Z,52.20
2022-09-12T10:09:20.544Z,51.70
2022-09-12T10:11:48.806Z,51.80
2022-09-12T10:14:40.668Z,51.20
2022-09-12T10:17:34.536Z,51.40
2022-09-12T10:20:21.506Z,51.00
2022-09-12T10:22:50.750Z,51.10
2022-09-12T10:25:20.380Z,51.20
2022-09-12T10:27:59.221Z,51.10
2022-09-12T10:30:28.831Z,51.40
2022-09-12T10:33:07.107Z,51.20
2022-09-12T10:35:46.407Z,51.10
2022-09-12T10:38:24.408Z,51.20
2022-09-12T10:41:01.362Z,51.00
2022-09-12T10:43:37.721Z,50.90
2022-09-12T10:46:17.063Z,51.10
2022-09-12T10:48:53.042Z,51.00
2022-09-12T10:51:26.251Z,50.70
2022-09-12T10:54:00.042Z,49.70
2022-09-12T10:57:03.244Z,49.20
2022-09-12T10:59:54.828Z,47.70
2022-09-12T11:02:41.347Z,46.70
2022-09-12T11:05:19.468Z,46.10
2022-09-12T11:07:53.387Z,45.60
2022-09-12T11:10:36.735Z,44.40
2022-09-12T11:13:39.111Z,43.90
2022-09-12T11:16:20.041Z,42.40
2022-09-12T11:19:05.241Z,43.80
2022-09-12T11:21:32.753Z,43.70
2022-09-12T11:24:21.382Z,43.90
2022-09-12T11:26:54.026Z,45.10
2022-09-12T11:29:58.225Z,45.40
2022-09-12T11:32:46.961Z,42.60
2022-09-12T11:35:25.656Z,43.60
2022-09-12T11:38:21.600Z,45.00
2022-09-12T11:41:14.644Z,43.30
2022-09-12T11:43:59.077Z,44.20
2022-09-12T11:46:36.730Z,44.90
2022-09-12T11:49:12.380Z,45.20
2022-09-12T11:51:51.926Z,45.80
2022-09-12T11:54:40.733Z,45.50
2022-09-12T11:57:12.560Z,46.00
2022-09-12T12:00:03.227Z,45.20
2022-09-12T12:03:14.985Z,45.10
2022-09-12T12:06:06.366Z,44.20
2022-09-12T12:08:40.346Z,43.70
2022-09-12T12:11:09.105Z,43.60
2022-09-12T12:14:06.654Z,42.50
2022-09-12T12:16:43.854Z,43.10
2022-09-12T12:19:18.409Z,43.10
2022-09-12T12:21:47.537Z,43.20
2022-09-12T12:24:23.700Z,43.40
2022-09-12T12:27:02.751Z,43.60
2022-09-12T12:29:43.530Z,43.70
2022-09-12T12:32:11.646Z,44.10
2022-09-12T12:34:40.290Z,44.00
2022-09-12T12:37:19.926Z,44.50
2022-09-12T12:39:48.369Z,44.30
2022-09-12T12:42:36.931Z,43.20
2022-09-12T12:45:10.032Z,42.40
2022-09-12T12:47:45.959Z,42.80
2022-09-12T12:50:26.302Z,43.30
2022-09-12T12:53:01.880Z,42.00
2022-09-12T12:55:46.184Z,42.00
2022-09-12T12:58:22.462Z,41.40
2022-09-12T13:01:17.148Z,41.40
2022-09-12T13:03:53.670Z,41.60
2022-09-12T13:06:37.726Z,41.40
2022-09-12T13:09:32.051Z,41.00
2022-09-12T13:12:05.772Z,42.10
2022-09-12T13:14:59.900Z,42.20
2022-09-12T13:17:39.386Z,42.60
2022-09-12T13:20:29.192Z,43.00
2022-09-12T13:22:58.911Z,41.80
2022-09-12T13:25:34.135Z,41.60
2022-09-12T13:28:16.065Z,40.90
2022-09-12T13:30:58.619Z,40.60
2022-09-12T13:33:49.893Z,41.90
2022-09-12T13:36:36.187Z,42.00
2022-09-12T13:39:30.628Z,41.70
2022-09-12T13:42:24.183Z,42.20
2022-09-12T13:45:22.903Z,42.60
2022-09-12T13:48:02.262Z,43.50
2022-09-12T13:50:42.834Z,44.50
2022-09-12T13:53:17.094Z,45.80
2022-09-12T13:55:50.164Z,48.10
2022-09-12T13:58:21.006Z,49.70
2022-09-12T14:01:14.381Z,51.70
2022-09-12T14:04:12.066Z,52.40
2022-09-12T14:06:46.792Z,54.40
2022-09-12T14:09:16.638Z,55.00
2022-09-12T14:11:44.203Z,55.20
2022-09-12T14:14:31.451Z,55.60
2022-09-12T14:17:01.406Z,55.80
2022-09-12T14:19:29.415Z,56.40
2022-09-12T14:21:58.478Z,56.10
2022-09-12T14:24:26.221Z,56.00
2022-09-12T14:26:55.629Z,56.50
2022-09-12T14:29:25.088Z,56.30
2022-09-12T14:32:04.347Z,56.50
2022-09-12T14:34:31.752Z,56.90
2022-09-12T14:37:00.284Z,57.30
2022-09-12T14:39:50.125Z,57.70
2022-09-12T14:42:20.821Z,57.40
2022-09-12T14:45:29.794Z,57.10
2022-09-12T14:47:58.703Z,57.40
2022-09-12T14:50:29.807Z,57.90
2022-09-12T14:53:18.544Z,57.30
2022-09-12T14:55:57.821Z,56.00
2022-09-12T14:58:27.547Z,56.50
2022-09-12T15:01:02.226Z,56.30
2022-09-12T15:03:33.722Z,56.70
2022-09-12T15:06:03.897Z,57.10
2022-09-12T15:08:32.233Z,57.00
2022-09-12T15:11:00.027Z,56.10
2022-09-12T15:13:28.839Z,55.80
2022-09-12T15:16:00.333Z,56.40
2022-09-12T15:18:29.252Z,56.10
2022-09-12T15:21:02.470Z,56.30
2022-09-12T15:23:44.034Z,56.20
2022-09-12T15:26:15.762Z,56.40
2022-09-12T15:28:43.416Z,56.30
2022-09-12T15:31:30.074Z,56.50
2022-09-12T15:33:59.730Z,55.90
2022-09-12T15:36:28.903Z,55.70
2022-09-12T15:38:56.692Z,56.20
2022-09-12T15:41:30.425Z,56.10
2022-09-12T15:43:57.896Z,56.30
2022-09-12T15:46:28.246Z,56.00
2022-09-12T15:48:56.831Z,55.80
2022-09-12T15:51:24.040Z,56.50
2022-09-12T15:53:52.676Z,57.60
2022-09-12T15:56:22.380Z,58.20
2022-09-12T15:58:58.892Z,57.70
2022-09-12T16:01:31.255Z,58.10
2022-09-12T16:03:58.991Z,57.80
2022-09-12T16:06:27.279Z,58.40
2022-09-12T16:08:54.444Z,57.40
2022-09-12T16:11:24.379Z,57.00
2022-09-12T16:13:56.107Z,55.10
2022-09-12T16:16:23.847Z,55.90
2022-09-12T16:18:51.222Z,56.30
2022-09-12T16:21:18.733Z,56.80
2022-09-12T16:23:47.587Z,56.50
2022-09-12T16:26:15.490Z,56.40
2022-09-12T16:28:43.177Z,55.80
2022-09-12T16:31:13.374Z,55.70
2022-09-12T16:33:40.881Z,55.70
2022-09-12T16:36:10.605Z,54.10
2022-09-12T16:38:49.271Z,54.70
2022-09-12T16:41:17.951Z,54.90
2022-09-12T16:43:45.739Z,55.30
2022-09-12T16:46:19.163Z,56.30
2022-09-12T16:48:52.728Z,56.10
2022-09-12T16:51:28.564Z,56.80
2022-09-12T16:53:56.376Z,57.20
2022-09-12T16:56:24.015Z,58.30
2022-09-12T16:58:51.828Z,58.10
2022-09-12T17:01:24.409Z,56.90
2022-09-12T17:03:56.944Z,56.50
2022-09-12T17:06:25.442Z,56.70
2022-09-12T17:08:54.276Z,57.30
2022-09-12T17:11:33.458Z,58.00
2022-09-12T17:14:05.289Z,57.40
2022-09-12T17:16:35.732Z,57.00
2022-09-12T17:19:03.325Z,57.00
2022-09-12T17:21:30.609Z,57.50
2022-09-12T17:23:59.328Z,58.40
2022-09-12T17:26:27.007Z,58.10
2022-09-12T17:28:54.244Z,58.20
2022-09-12T17:31:21.632Z,58.10
2022-09-12T17:33:49.140Z,57.80
2022-09-12T17:36:18.663Z,58.80
2022-09-12T17:38:46.737Z,59.40
2022-09-12T17:41:20.405Z,58.70
2022-09-12T17:43:57.605Z,58.10
2022-09-12T17:46:36.517Z,58.00
2022-09-12T17:49:11.687Z,57.10
2022-09-12T17:51:40.564Z,58.60
2022-09-12T17:54:11.943Z,59.30
2022-09-12T17:56:39.895Z,59.10
2022-09-12T17:59:08.573Z,58.20
2022-09-12T18:01:54.550Z,58.00
2022-09-12T18:04:21.900Z,57.50
2022-09-12T18:06:49.380Z,57.10
2022-09-12T18:09:19.884Z,57.40
2022-09-12T18:11:48.938Z,57.50
2022-09-12T18:14:17.220Z,58.00
2022-09-12T18:16:45.547Z,58.30
2022-09-12T18:19:12.989Z,58.50
2022-09-12T18:21:41.110Z,59.80
2022-09-12T18:24:09.607Z,60.40
2022-09-12T18:26:37.351Z,60.50
2022-09-12T18:29:04.891Z,60.70
2022-09-12T18:31:32.298Z,60.50
2022-09-12T18:34:00.685Z,60.50
2022-09-12T18:36:29.263Z,59.90
2022-09-12T18:38:58.669Z,59.30
2022-09-12T18:41:26.757Z,59.60
2022-09-12T18:43:55.786Z,59.70
2022-09-12T18:46:23.315Z,60.10
2022-09-12T18:48:52.253Z,60.80
2022-09-12T18:51:23.410Z,61.40
2022-09-12T18:53:55.850Z,61.40
2022-09-12T18:56:24.836Z,61.30
2022-09-12T18:58:55.221Z,61.90
2022-09-12T19:01:25.351Z,62.10
2022-09-12T19:03:53.523Z,62.10
2022-09-12T19:06:23.556Z,61.80
2022-09-12T19:08:52.741Z,61.50
2022-09-12T19:11:22.016Z,60.80
2022-09-12T19:13:53.339Z,61.00
2022-09-12T19:16:27.098Z,60.90
2022-09-12T19:19:00.944Z,61.00
2022-09-12T19:21:31.658Z,61.10
2022-09-12T19:24:07.302Z,60.80
2022-09-12T19:26:37.081Z,61.40
2022-09-12T19:29:08.717Z,61.50
2022-09-12T19:31:42.411Z,61.40
2022-09-12T19:34:22.125Z,61.20
2022-09-12T19:36:56.137Z,60.90
2022-09-12T19:39:30.864Z,60.70
2022-09-12T19:42:04.114Z,60.50
2022-09-12T19:44:33.223Z,60.50
2022-09-12T19:47:02.916Z,60.60
2022-09-12T19:49:30.528Z,60.70
2022-09-12T19:51:59.664Z,60.50
2022-09-12T19:54:27.521Z,61.00
2022-09-12T19:56:54.984Z,61.50
2022-09-12T19:59:25.323Z,61.60
2022-09-12T20:01:58.796Z,61.70
2022-09-12T20:04:28.126Z,61.60
2022-09-12T20:07:00.753Z,61.40
2022-09-12T20:09:33.261Z,61.50
2022-09-12T20:14:43.736Z,61.50
2022-09-12T20:17:12.469Z,61.50
2022-09-12T20:19:43.023Z,61.70
2022-09-12T20:22:10.440Z,61.40
2022-09-12T20:24:38.608Z,61.30
2022-09-12T20:27:06.773Z,61.10
2022-09-12T20:29:34.194Z,61.20
2022-09-12T20:32:03.060Z,61.30
2022-09-12T20:34:36.333Z,61.50
2022-09-12T20:37:03.916Z,61.60
2022-09-12T20:39:34.684Z,60.90
2022-09-12T20:42:02.292Z,60.70
2022-09-12T20:44:33.110Z,60.50
2022-09-12T20:47:01.335Z,60.20
2022-09-12T20:49:30.104Z,60.50
2022-09-12T20:51:57.275Z,60.80
2022-09-12T20:54:28.160Z,61.40
2022-09-12T20:56:59.067Z,61.60
2022-09-12T20:59:27.896Z,61.60
2022-09-12T21:01:55.476Z,61.80
2022-09-12T21:04:24.021Z,61.80
2022-09-12T21:06:53.225Z,61.70
2022-09-12T21:09:24.402Z,61.30
2022-09-12T21:11:51.815Z,61.20
2022-09-12T21:14:20.571Z,60.90
2022-09-12T21:16:47.998Z,60.70
2022-09-12T21:19:15.246Z,60.60
2022-09-12T21:21:43.090Z,60.60
2022-09-12T21:24:13.619Z,60.50
2022-09-12T21:26:41.915Z,60.30
2022-09-12T21:29:09.065Z,60.20
2022-09-12T21:31:36.769Z,60.40
2022-09-12T21:34:04.063Z,60.60
2022-09-12T21:36:31.295Z,60.70
2022-09-12T21:38:59.579Z,60.90
2022-09-12T21:41:26.818Z,60.90
2022-09-12T21:43:54.140Z,61.20
2022-09-12T21:46:21.250Z,61.00
2022-09-12T21:48:48.627Z,61.20
2022-09-12T21:51:15.711Z,61.00
2022-09-12T21:53:43.402Z,61.00
2022-09-12T21:56:10.550Z,61.10
2022-09-12T21:58:38.379Z,60.90
2022-09-12T22:01:08.647Z,61.00
2022-09-12T22:03:36.039Z,61.10
2022-09-12T22:06:05.784Z,61.50
2022-09-12T22:08:34.312Z,61.40
2022-09-12T22:11:09.737Z,61.60
2022-09-12T22:13:39.286Z,61.60
2022-09-12T22:16:07.726Z,62.00
2022-09-12T22:18:36.654Z,61.90
2022-09-12T22:21:08.339Z,62.10
2022-09-12T22:23:54.059Z,62.40
2022-09-12T22:26:21.735Z,62.40
2022-09-12T22:28:50.352Z,62.60
2022-09-12T22:31:18.130Z,62.70
2022-09-12T22:33:45.865Z,62.90
2022-09-12T22:36:13.683Z,62.80
2022-09-12T22:38:41.093Z,63.00
2022-09-12T22:41:10.705Z,63.30
2022-09-12T22:43:40.783Z,63.60
2022-09-12T22:46:15.152Z,63.40
2022-09-12T22:48:45.323Z,63.10
2022-09-12T22:51:12.654Z,63.10
2022-09-12T22:53:39.882Z,63.40
2022-09-12T22:56:07.543Z,63.80
2022-09-12T22:58:38.966Z,64.00
2022-09-12T23:01:07.195Z,64.40
2022-09-12T23:03:34.733Z,64.50
2022-09-12T23:06:02.348Z,64.60
2022-09-12T23:08:31.572Z,64.80
2022-09-12T23:11:19.255Z,65.10
2022-09-12T23:13:48.476Z,65.30
2022-09-12T23:16:18.786Z,65.50
2022-09-12T23:18:46.210Z,66.00
2022-09-12T23:21:39.487Z,65.80
2022-09-12T23:24:06.804Z,65.90
2022-09-12T23:26:35.468Z,66.00
2022-09-12T23:29:06.546Z,66.20
2022-09-12T23:31:34.296Z,66.20
2022-09-12T23:34:06.078Z,65.90
2022-09-12T23:36:35.349Z,66.00
2022-09-12T23:39:02.978Z,65.60
2022-09-12T23:41:31.382Z,65.80
2022-09-12T23:43:58.885Z,65.70
2022-09-12T23:46:26.142Z,65.80
2022-09-12T23:48:56.211Z,65.50
2022-09-12T23:51:23.839Z,65.50
2022-09-12T23:53:51.013Z,65.50
2022-09-12T23:56:18.672Z,65.50
2022-09-12T23:58:45.999Z,65.60
